<?xml version="1.0" encoding="UTF-8" standalone="no" ?>
<gpx xmlns="http://www.topografix.com/GPX/1/1" xmlns:xsi="http://www.w3.org/2001/XMLSchema-instance" xsi:schemaLocation="http://www.topografix.com/GPX/1/1 http://www.topografix.com/GPX/1/1/gpx.xsd" version="1.1" creator="VisuGPX - https://www.visugpx.com">
  <metadata>
    <name>Prospection chemins praticables 1</name>
  </metadata>
  <trk>
    <name><![CDATA[Tracé actuel: 26 AOU 2021 16:53]]></name>
    <extensions>
      <line xmlns="http://www.topografix.com/GPX/gpx_style/0/2">
        <color>0000FF</color>
        <width>4</width>
      </line>
    </extensions>
    <trkseg>
      <trkpt lat="47.71749" lon="5.09665">
        <ele>477.38</ele>
        <time>2021-08-26T14:53:13Z</time>
      </trkpt>
      <trkpt lat="47.71749" lon="5.09665">
        <ele>477.38</ele>
        <time>2021-08-26T14:53:13Z</time>
      </trkpt>
      <trkpt lat="47.71753" lon="5.09661">
        <ele>476.9</ele>
        <time>2021-08-26T14:53:45Z</time>
      </trkpt>
      <trkpt lat="47.71762" lon="5.09651">
        <ele>476.58</ele>
        <time>2021-08-26T14:54:00Z</time>
      </trkpt>
      <trkpt lat="47.71771" lon="5.09643">
        <ele>477.32</ele>
        <time>2021-08-26T14:54:16Z</time>
      </trkpt>
      <trkpt lat="47.71785" lon="5.09633">
        <ele>476.59</ele>
        <time>2021-08-26T14:54:32Z</time>
      </trkpt>
      <trkpt lat="47.71797" lon="5.09624">
        <ele>476.52</ele>
        <time>2021-08-26T14:54:49Z</time>
      </trkpt>
      <trkpt lat="47.71816" lon="5.09608">
        <ele>475.58</ele>
        <time>2021-08-26T14:55:06Z</time>
      </trkpt>
      <trkpt lat="47.7182" lon="5.09592">
        <ele>475.59</ele>
        <time>2021-08-26T14:55:20Z</time>
      </trkpt>
      <trkpt lat="47.71827" lon="5.09567">
        <ele>475.68</ele>
        <time>2021-08-26T14:55:39Z</time>
      </trkpt>
      <trkpt lat="47.71834" lon="5.09548">
        <ele>476.01</ele>
        <time>2021-08-26T14:55:55Z</time>
      </trkpt>
      <trkpt lat="47.71835" lon="5.09551">
        <ele>475.85</ele>
        <time>2021-08-26T14:56:34Z</time>
      </trkpt>
      <trkpt lat="47.71845" lon="5.09524">
        <ele>477.2</ele>
        <time>2021-08-26T14:57:00Z</time>
      </trkpt>
      <trkpt lat="47.7185" lon="5.095">
        <ele>476.93</ele>
        <time>2021-08-26T14:57:15Z</time>
      </trkpt>
      <trkpt lat="47.71856" lon="5.09481">
        <ele>476.69</ele>
        <time>2021-08-26T14:57:26Z</time>
      </trkpt>
      <trkpt lat="47.71862" lon="5.09465">
        <ele>476.5</ele>
        <time>2021-08-26T14:57:40Z</time>
      </trkpt>
      <trkpt lat="47.71868" lon="5.09449">
        <ele>476.35</ele>
        <time>2021-08-26T14:57:55Z</time>
      </trkpt>
      <trkpt lat="47.71879" lon="5.09433">
        <ele>476.47</ele>
        <time>2021-08-26T14:58:10Z</time>
      </trkpt>
      <trkpt lat="47.71888" lon="5.09421">
        <ele>476.08</ele>
        <time>2021-08-26T14:58:23Z</time>
      </trkpt>
      <trkpt lat="47.719" lon="5.09406">
        <ele>475.54</ele>
        <time>2021-08-26T14:58:42Z</time>
      </trkpt>
      <trkpt lat="47.71909" lon="5.0939">
        <ele>475.48</ele>
        <time>2021-08-26T14:58:55Z</time>
      </trkpt>
      <trkpt lat="47.71919" lon="5.09375">
        <ele>475.08</ele>
        <time>2021-08-26T14:59:10Z</time>
      </trkpt>
      <trkpt lat="47.71925" lon="5.09365">
        <ele>475.07</ele>
        <time>2021-08-26T14:59:22Z</time>
      </trkpt>
      <trkpt lat="47.71936" lon="5.09353">
        <ele>474.25</ele>
        <time>2021-08-26T14:59:39Z</time>
      </trkpt>
      <trkpt lat="47.71949" lon="5.09346">
        <ele>474.24</ele>
        <time>2021-08-26T14:59:56Z</time>
      </trkpt>
      <trkpt lat="47.71973" lon="5.09335">
        <ele>473.54</ele>
        <time>2021-08-26T15:00:25Z</time>
      </trkpt>
      <trkpt lat="47.71988" lon="5.09328">
        <ele>473.04</ele>
        <time>2021-08-26T15:00:40Z</time>
      </trkpt>
      <trkpt lat="47.72001" lon="5.09326">
        <ele>472.71</ele>
        <time>2021-08-26T15:00:56Z</time>
      </trkpt>
      <trkpt lat="47.72018" lon="5.09321">
        <ele>472.62</ele>
        <time>2021-08-26T15:01:12Z</time>
      </trkpt>
      <trkpt lat="47.72028" lon="5.09319">
        <ele>472.36</ele>
        <time>2021-08-26T15:01:28Z</time>
      </trkpt>
      <trkpt lat="47.72041" lon="5.09311">
        <ele>472.04</ele>
        <time>2021-08-26T15:01:40Z</time>
      </trkpt>
      <trkpt lat="47.72054" lon="5.09297">
        <ele>471.6</ele>
        <time>2021-08-26T15:02:07Z</time>
      </trkpt>
      <trkpt lat="47.7207" lon="5.0928">
        <ele>471.58</ele>
        <time>2021-08-26T15:02:26Z</time>
      </trkpt>
      <trkpt lat="47.72081" lon="5.09266">
        <ele>472.13</ele>
        <time>2021-08-26T15:02:40Z</time>
      </trkpt>
      <trkpt lat="47.7209" lon="5.09255">
        <ele>472.15</ele>
        <time>2021-08-26T15:02:54Z</time>
      </trkpt>
      <trkpt lat="47.72098" lon="5.09243">
        <ele>472.48</ele>
        <time>2021-08-26T15:03:08Z</time>
      </trkpt>
      <trkpt lat="47.72102" lon="5.09233">
        <ele>472.38</ele>
        <time>2021-08-26T15:03:20Z</time>
      </trkpt>
      <trkpt lat="47.72106" lon="5.09219">
        <ele>472.33</ele>
        <time>2021-08-26T15:03:54Z</time>
      </trkpt>
      <trkpt lat="47.72115" lon="5.09202">
        <ele>472.19</ele>
        <time>2021-08-26T15:04:09Z</time>
      </trkpt>
      <trkpt lat="47.7212" lon="5.09192">
        <ele>472.31</ele>
        <time>2021-08-26T15:04:24Z</time>
      </trkpt>
      <trkpt lat="47.72125" lon="5.09176">
        <ele>472.14</ele>
        <time>2021-08-26T15:04:39Z</time>
      </trkpt>
      <trkpt lat="47.7213" lon="5.09163">
        <ele>472.13</ele>
        <time>2021-08-26T15:04:51Z</time>
      </trkpt>
      <trkpt lat="47.72135" lon="5.09145">
        <ele>472.18</ele>
        <time>2021-08-26T15:05:03Z</time>
      </trkpt>
      <trkpt lat="47.72139" lon="5.09123">
        <ele>471.76</ele>
        <time>2021-08-26T15:05:19Z</time>
      </trkpt>
      <trkpt lat="47.72145" lon="5.09108">
        <ele>471.43</ele>
        <time>2021-08-26T15:05:34Z</time>
      </trkpt>
      <trkpt lat="47.72149" lon="5.09088">
        <ele>470.64</ele>
        <time>2021-08-26T15:05:49Z</time>
      </trkpt>
      <trkpt lat="47.72138" lon="5.09072">
        <ele>469.07</ele>
        <time>2021-08-26T15:06:06Z</time>
      </trkpt>
      <trkpt lat="47.7213" lon="5.09061">
        <ele>468.59</ele>
        <time>2021-08-26T15:06:24Z</time>
      </trkpt>
      <trkpt lat="47.7213" lon="5.09055">
        <ele>468.65</ele>
        <time>2021-08-26T15:06:58Z</time>
      </trkpt>
      <trkpt lat="47.72125" lon="5.09058">
        <ele>467.93</ele>
        <time>2021-08-26T15:07:36Z</time>
      </trkpt>
      <trkpt lat="47.72121" lon="5.09057">
        <ele>467.66</ele>
        <time>2021-08-26T15:07:49Z</time>
      </trkpt>
      <trkpt lat="47.72118" lon="5.09052">
        <ele>466.99</ele>
        <time>2021-08-26T15:08:11Z</time>
      </trkpt>
      <trkpt lat="47.72115" lon="5.09054">
        <ele>465.31</ele>
        <time>2021-08-26T15:08:27Z</time>
      </trkpt>
      <trkpt lat="47.72106" lon="5.09058">
        <ele>462.92</ele>
        <time>2021-08-26T15:08:44Z</time>
      </trkpt>
      <trkpt lat="47.72089" lon="5.0906">
        <ele>460.13</ele>
        <time>2021-08-26T15:08:58Z</time>
      </trkpt>
      <trkpt lat="47.72078" lon="5.09062">
        <ele>458.67</ele>
        <time>2021-08-26T15:09:09Z</time>
      </trkpt>
      <trkpt lat="47.72065" lon="5.09061">
        <ele>456.53</ele>
        <time>2021-08-26T15:09:26Z</time>
      </trkpt>
      <trkpt lat="47.72056" lon="5.09063">
        <ele>454.68</ele>
        <time>2021-08-26T15:09:39Z</time>
      </trkpt>
      <trkpt lat="47.72045" lon="5.09063">
        <ele>452.32</ele>
        <time>2021-08-26T15:09:54Z</time>
      </trkpt>
      <trkpt lat="47.72032" lon="5.09064">
        <ele>450.58</ele>
        <time>2021-08-26T15:10:08Z</time>
      </trkpt>
      <trkpt lat="47.72012" lon="5.09067">
        <ele>448.17</ele>
        <time>2021-08-26T15:10:25Z</time>
      </trkpt>
      <trkpt lat="47.72006" lon="5.09066">
        <ele>446.72</ele>
        <time>2021-08-26T15:10:40Z</time>
      </trkpt>
      <trkpt lat="47.7199" lon="5.0906">
        <ele>444.6</ele>
        <time>2021-08-26T15:10:56Z</time>
      </trkpt>
      <trkpt lat="47.71984" lon="5.09057">
        <ele>444.26</ele>
        <time>2021-08-26T15:11:01Z</time>
      </trkpt>
      <trkpt lat="47.71972" lon="5.09054">
        <ele>443.73</ele>
        <time>2021-08-26T15:11:14Z</time>
      </trkpt>
      <trkpt lat="47.71972" lon="5.09053">
        <ele>444.05</ele>
        <time>2021-08-26T15:11:32Z</time>
      </trkpt>
      <trkpt lat="47.71971" lon="5.0905">
        <ele>443.56</ele>
        <time>2021-08-26T15:11:48Z</time>
      </trkpt>
      <trkpt lat="47.71958" lon="5.09037">
        <ele>443.66</ele>
        <time>2021-08-26T15:12:02Z</time>
      </trkpt>
      <trkpt lat="47.71952" lon="5.09027">
        <ele>444.64</ele>
        <time>2021-08-26T15:12:14Z</time>
      </trkpt>
      <trkpt lat="47.71939" lon="5.09014">
        <ele>445.31</ele>
        <time>2021-08-26T15:12:29Z</time>
      </trkpt>
      <trkpt lat="47.71932" lon="5.09006">
        <ele>444.9</ele>
        <time>2021-08-26T15:12:41Z</time>
      </trkpt>
      <trkpt lat="47.71922" lon="5.09002">
        <ele>444.32</ele>
        <time>2021-08-26T15:12:54Z</time>
      </trkpt>
      <trkpt lat="47.71911" lon="5.08989">
        <ele>444.88</ele>
        <time>2021-08-26T15:13:09Z</time>
      </trkpt>
      <trkpt lat="47.71903" lon="5.08982">
        <ele>445.39</ele>
        <time>2021-08-26T15:13:18Z</time>
      </trkpt>
      <trkpt lat="47.71887" lon="5.08979">
        <ele>445.84</ele>
        <time>2021-08-26T15:13:36Z</time>
      </trkpt>
      <trkpt lat="47.71877" lon="5.08977">
        <ele>445.68</ele>
        <time>2021-08-26T15:13:50Z</time>
      </trkpt>
      <trkpt lat="47.71863" lon="5.08976">
        <ele>444.73</ele>
        <time>2021-08-26T15:14:05Z</time>
      </trkpt>
      <trkpt lat="47.71854" lon="5.08973">
        <ele>444.14</ele>
        <time>2021-08-26T15:14:20Z</time>
      </trkpt>
      <trkpt lat="47.71845" lon="5.08971">
        <ele>443.57</ele>
        <time>2021-08-26T15:14:35Z</time>
      </trkpt>
      <trkpt lat="47.71835" lon="5.08962">
        <ele>443.71</ele>
        <time>2021-08-26T15:14:48Z</time>
      </trkpt>
      <trkpt lat="47.71834" lon="5.0896">
        <ele>443.46</ele>
        <time>2021-08-26T15:14:52Z</time>
      </trkpt>
      <trkpt lat="47.71821" lon="5.08949">
        <ele>443.81</ele>
        <time>2021-08-26T15:15:08Z</time>
      </trkpt>
      <trkpt lat="47.7181" lon="5.08939">
        <ele>443.27</ele>
        <time>2021-08-26T15:15:24Z</time>
      </trkpt>
      <trkpt lat="47.71802" lon="5.08929">
        <ele>442.99</ele>
        <time>2021-08-26T15:15:35Z</time>
      </trkpt>
      <trkpt lat="47.71799" lon="5.0892">
        <ele>442.67</ele>
        <time>2021-08-26T15:15:43Z</time>
      </trkpt>
      <trkpt lat="47.71791" lon="5.08901">
        <ele>443.5</ele>
        <time>2021-08-26T15:16:00Z</time>
      </trkpt>
      <trkpt lat="47.71788" lon="5.08906">
        <ele>443.98</ele>
        <time>2021-08-26T15:16:24Z</time>
      </trkpt>
      <trkpt lat="47.71785" lon="5.08906">
        <ele>443.35</ele>
        <time>2021-08-26T15:16:33Z</time>
      </trkpt>
      <trkpt lat="47.71777" lon="5.08915">
        <ele>442.52</ele>
        <time>2021-08-26T15:16:46Z</time>
      </trkpt>
      <trkpt lat="47.71768" lon="5.08919">
        <ele>441.08</ele>
        <time>2021-08-26T15:16:57Z</time>
      </trkpt>
      <trkpt lat="47.71761" lon="5.08925">
        <ele>438.83</ele>
        <time>2021-08-26T15:17:14Z</time>
      </trkpt>
      <trkpt lat="47.7176" lon="5.08927">
        <ele>437.76</ele>
        <time>2021-08-26T15:17:58Z</time>
      </trkpt>
      <trkpt lat="47.71756" lon="5.08929">
        <ele>434.9</ele>
        <time>2021-08-26T15:18:13Z</time>
      </trkpt>
      <trkpt lat="47.71747" lon="5.08933">
        <ele>431.68</ele>
        <time>2021-08-26T15:18:29Z</time>
      </trkpt>
      <trkpt lat="47.71741" lon="5.08936">
        <ele>429.26</ele>
        <time>2021-08-26T15:18:44Z</time>
      </trkpt>
      <trkpt lat="47.71733" lon="5.08941">
        <ele>426.25</ele>
        <time>2021-08-26T15:19:01Z</time>
      </trkpt>
      <trkpt lat="47.71726" lon="5.08943">
        <ele>423.8</ele>
        <time>2021-08-26T15:19:17Z</time>
      </trkpt>
      <trkpt lat="47.71722" lon="5.08946">
        <ele>421.6</ele>
        <time>2021-08-26T15:19:31Z</time>
      </trkpt>
      <trkpt lat="47.71723" lon="5.08955">
        <ele>421.31</ele>
        <time>2021-08-26T15:19:47Z</time>
      </trkpt>
      <trkpt lat="47.71729" lon="5.08964">
        <ele>420.83</ele>
        <time>2021-08-26T15:20:01Z</time>
      </trkpt>
      <trkpt lat="47.71745" lon="5.08976">
        <ele>420.46</ele>
        <time>2021-08-26T15:20:16Z</time>
      </trkpt>
      <trkpt lat="47.71756" lon="5.08988">
        <ele>420.98</ele>
        <time>2021-08-26T15:20:30Z</time>
      </trkpt>
      <trkpt lat="47.71757" lon="5.08989">
        <ele>421.03</ele>
        <time>2021-08-26T15:20:31Z</time>
      </trkpt>
      <trkpt lat="47.7177" lon="5.09001">
        <ele>422.28</ele>
        <time>2021-08-26T15:20:48Z</time>
      </trkpt>
      <trkpt lat="47.71787" lon="5.09008">
        <ele>423.33</ele>
        <time>2021-08-26T15:21:02Z</time>
      </trkpt>
      <trkpt lat="47.71802" lon="5.09015">
        <ele>424.73</ele>
        <time>2021-08-26T15:21:17Z</time>
      </trkpt>
      <trkpt lat="47.71815" lon="5.0903">
        <ele>426.43</ele>
        <time>2021-08-26T15:21:36Z</time>
      </trkpt>
      <trkpt lat="47.71829" lon="5.09047">
        <ele>427.42</ele>
        <time>2021-08-26T15:21:54Z</time>
      </trkpt>
      <trkpt lat="47.71837" lon="5.09051">
        <ele>427.84</ele>
        <time>2021-08-26T15:22:25Z</time>
      </trkpt>
      <trkpt lat="47.71839" lon="5.09051">
        <ele>427.87</ele>
        <time>2021-08-26T15:22:49Z</time>
      </trkpt>
      <trkpt lat="47.71844" lon="5.09051">
        <ele>428.66</ele>
        <time>2021-08-26T15:23:01Z</time>
      </trkpt>
      <trkpt lat="47.71854" lon="5.09047">
        <ele>429.07</ele>
        <time>2021-08-26T15:23:12Z</time>
      </trkpt>
      <trkpt lat="47.71862" lon="5.09046">
        <ele>429.82</ele>
        <time>2021-08-26T15:23:25Z</time>
      </trkpt>
      <trkpt lat="47.71874" lon="5.09039">
        <ele>430.98</ele>
        <time>2021-08-26T15:23:40Z</time>
      </trkpt>
      <trkpt lat="47.71889" lon="5.09039">
        <ele>432.06</ele>
        <time>2021-08-26T15:23:53Z</time>
      </trkpt>
      <trkpt lat="47.71897" lon="5.09043">
        <ele>432.94</ele>
        <time>2021-08-26T15:24:04Z</time>
      </trkpt>
      <trkpt lat="47.71915" lon="5.09048">
        <ele>434.55</ele>
        <time>2021-08-26T15:24:19Z</time>
      </trkpt>
      <trkpt lat="47.71922" lon="5.09052">
        <ele>436.08</ele>
        <time>2021-08-26T15:24:30Z</time>
      </trkpt>
      <trkpt lat="47.71932" lon="5.09055">
        <ele>436.81</ele>
        <time>2021-08-26T15:24:40Z</time>
      </trkpt>
      <trkpt lat="47.7195" lon="5.09053">
        <ele>438.48</ele>
        <time>2021-08-26T15:24:53Z</time>
      </trkpt>
      <trkpt lat="47.71958" lon="5.09056">
        <ele>439.92</ele>
        <time>2021-08-26T15:25:04Z</time>
      </trkpt>
      <trkpt lat="47.7197" lon="5.09056">
        <ele>441.66</ele>
        <time>2021-08-26T15:25:21Z</time>
      </trkpt>
      <trkpt lat="47.7198" lon="5.0905">
        <ele>443.13</ele>
        <time>2021-08-26T15:25:33Z</time>
      </trkpt>
      <trkpt lat="47.71977" lon="5.09055">
        <ele>441.39</ele>
        <time>2021-08-26T15:25:50Z</time>
      </trkpt>
      <trkpt lat="47.71974" lon="5.09057">
        <ele>440.65</ele>
        <time>2021-08-26T15:25:54Z</time>
      </trkpt>
      <trkpt lat="47.71968" lon="5.09058">
        <ele>439.83</ele>
        <time>2021-08-26T15:25:58Z</time>
      </trkpt>
      <trkpt lat="47.71964" lon="5.09056">
        <ele>439.5</ele>
        <time>2021-08-26T15:26:02Z</time>
      </trkpt>
      <trkpt lat="47.71954" lon="5.09053">
        <ele>437.91</ele>
        <time>2021-08-26T15:26:14Z</time>
      </trkpt>
      <trkpt lat="47.71943" lon="5.09052">
        <ele>436.52</ele>
        <time>2021-08-26T15:26:27Z</time>
      </trkpt>
      <trkpt lat="47.71932" lon="5.09052">
        <ele>435.67</ele>
        <time>2021-08-26T15:26:38Z</time>
      </trkpt>
      <trkpt lat="47.71924" lon="5.0905">
        <ele>434.87</ele>
        <time>2021-08-26T15:26:42Z</time>
      </trkpt>
      <trkpt lat="47.71903" lon="5.09043">
        <ele>432.82</ele>
        <time>2021-08-26T15:26:59Z</time>
      </trkpt>
      <trkpt lat="47.71887" lon="5.09035">
        <ele>431.06</ele>
        <time>2021-08-26T15:27:15Z</time>
      </trkpt>
      <trkpt lat="47.71877" lon="5.09038">
        <ele>430.11</ele>
        <time>2021-08-26T15:27:27Z</time>
      </trkpt>
      <trkpt lat="47.71867" lon="5.09044">
        <ele>429.1</ele>
        <time>2021-08-26T15:27:38Z</time>
      </trkpt>
      <trkpt lat="47.71855" lon="5.09046">
        <ele>428.2</ele>
        <time>2021-08-26T15:27:55Z</time>
      </trkpt>
      <trkpt lat="47.71839" lon="5.09052">
        <ele>426.99</ele>
        <time>2021-08-26T15:28:09Z</time>
      </trkpt>
      <trkpt lat="47.71827" lon="5.09057">
        <ele>427.17</ele>
        <time>2021-08-26T15:28:25Z</time>
      </trkpt>
      <trkpt lat="47.71816" lon="5.09068">
        <ele>428.45</ele>
        <time>2021-08-26T15:28:40Z</time>
      </trkpt>
      <trkpt lat="47.718" lon="5.09079">
        <ele>429.08</ele>
        <time>2021-08-26T15:28:54Z</time>
      </trkpt>
      <trkpt lat="47.71791" lon="5.09089">
        <ele>429.02</ele>
        <time>2021-08-26T15:29:10Z</time>
      </trkpt>
      <trkpt lat="47.71776" lon="5.09099">
        <ele>429.42</ele>
        <time>2021-08-26T15:29:24Z</time>
      </trkpt>
      <trkpt lat="47.71768" lon="5.09107">
        <ele>429.74</ele>
        <time>2021-08-26T15:29:35Z</time>
      </trkpt>
      <trkpt lat="47.7176" lon="5.09115">
        <ele>429.79</ele>
        <time>2021-08-26T15:29:50Z</time>
      </trkpt>
      <trkpt lat="47.71764" lon="5.09111">
        <ele>429.56</ele>
        <time>2021-08-26T15:30:27Z</time>
      </trkpt>
      <trkpt lat="47.71763" lon="5.09112">
        <ele>429.81</ele>
        <time>2021-08-26T15:31:34Z</time>
      </trkpt>
      <trkpt lat="47.71759" lon="5.09116">
        <ele>429.49</ele>
        <time>2021-08-26T15:31:56Z</time>
      </trkpt>
      <trkpt lat="47.71754" lon="5.09118">
        <ele>429</ele>
        <time>2021-08-26T15:32:23Z</time>
      </trkpt>
      <trkpt lat="47.71748" lon="5.09125">
        <ele>428.08</ele>
        <time>2021-08-26T15:32:37Z</time>
      </trkpt>
      <trkpt lat="47.71737" lon="5.09132">
        <ele>426.71</ele>
        <time>2021-08-26T15:32:53Z</time>
      </trkpt>
      <trkpt lat="47.71733" lon="5.09132">
        <ele>426.95</ele>
        <time>2021-08-26T15:33:17Z</time>
      </trkpt>
      <trkpt lat="47.71726" lon="5.09137">
        <ele>425.09</ele>
        <time>2021-08-26T15:33:38Z</time>
      </trkpt>
      <trkpt lat="47.71712" lon="5.09137">
        <ele>423.22</ele>
        <time>2021-08-26T15:33:57Z</time>
      </trkpt>
      <trkpt lat="47.71708" lon="5.0914">
        <ele>423.07</ele>
        <time>2021-08-26T15:33:58Z</time>
      </trkpt>
      <trkpt lat="47.71704" lon="5.09142">
        <ele>423.04</ele>
        <time>2021-08-26T15:33:59Z</time>
      </trkpt>
      <trkpt lat="47.71695" lon="5.09137">
        <ele>422.5</ele>
        <time>2021-08-26T15:34:10Z</time>
      </trkpt>
      <trkpt lat="47.71695" lon="5.09117">
        <ele>422.15</ele>
        <time>2021-08-26T15:34:22Z</time>
      </trkpt>
      <trkpt lat="47.71693" lon="5.09097">
        <ele>422.02</ele>
        <time>2021-08-26T15:34:37Z</time>
      </trkpt>
      <trkpt lat="47.7169" lon="5.09088">
        <ele>422.28</ele>
        <time>2021-08-26T15:34:58Z</time>
      </trkpt>
      <trkpt lat="47.71679" lon="5.09071">
        <ele>422.63</ele>
        <time>2021-08-26T15:35:14Z</time>
      </trkpt>
      <trkpt lat="47.71668" lon="5.09062">
        <ele>423.95</ele>
        <time>2021-08-26T15:35:32Z</time>
      </trkpt>
      <trkpt lat="47.71658" lon="5.09046">
        <ele>425.21</ele>
        <time>2021-08-26T15:35:49Z</time>
      </trkpt>
      <trkpt lat="47.71649" lon="5.09033">
        <ele>425.31</ele>
        <time>2021-08-26T15:36:04Z</time>
      </trkpt>
      <trkpt lat="47.71643" lon="5.09013">
        <ele>424.15</ele>
        <time>2021-08-26T15:36:20Z</time>
      </trkpt>
      <trkpt lat="47.71644" lon="5.09008">
        <ele>423.4</ele>
        <time>2021-08-26T15:36:26Z</time>
      </trkpt>
      <trkpt lat="47.71645" lon="5.08995">
        <ele>420.72</ele>
        <time>2021-08-26T15:36:39Z</time>
      </trkpt>
      <trkpt lat="47.71645" lon="5.08978">
        <ele>419.59</ele>
        <time>2021-08-26T15:36:55Z</time>
      </trkpt>
      <trkpt lat="47.71641" lon="5.08958">
        <ele>418.96</ele>
        <time>2021-08-26T15:37:11Z</time>
      </trkpt>
      <trkpt lat="47.71635" lon="5.0893">
        <ele>418.51</ele>
        <time>2021-08-26T15:37:30Z</time>
      </trkpt>
      <trkpt lat="47.71641" lon="5.08917">
        <ele>416.82</ele>
        <time>2021-08-26T15:37:42Z</time>
      </trkpt>
      <trkpt lat="47.71636" lon="5.08904">
        <ele>416.23</ele>
        <time>2021-08-26T15:37:56Z</time>
      </trkpt>
      <trkpt lat="47.71629" lon="5.08881">
        <ele>415.44</ele>
        <time>2021-08-26T15:38:14Z</time>
      </trkpt>
      <trkpt lat="47.71626" lon="5.08867">
        <ele>415.25</ele>
        <time>2021-08-26T15:38:26Z</time>
      </trkpt>
      <trkpt lat="47.71615" lon="5.08844">
        <ele>414.4</ele>
        <time>2021-08-26T15:38:48Z</time>
      </trkpt>
      <trkpt lat="47.71608" lon="5.08826">
        <ele>414.31</ele>
        <time>2021-08-26T15:39:06Z</time>
      </trkpt>
      <trkpt lat="47.716" lon="5.08814">
        <ele>414.32</ele>
        <time>2021-08-26T15:39:19Z</time>
      </trkpt>
      <trkpt lat="47.71591" lon="5.088">
        <ele>413.7</ele>
        <time>2021-08-26T15:39:32Z</time>
      </trkpt>
      <trkpt lat="47.71588" lon="5.0879">
        <ele>414.08</ele>
        <time>2021-08-26T15:39:58Z</time>
      </trkpt>
      <trkpt lat="47.71574" lon="5.08788">
        <ele>414.02</ele>
        <time>2021-08-26T15:40:22Z</time>
      </trkpt>
      <trkpt lat="47.71569" lon="5.08787">
        <ele>414.57</ele>
        <time>2021-08-26T15:40:35Z</time>
      </trkpt>
      <trkpt lat="47.71567" lon="5.08776">
        <ele>414.44</ele>
        <time>2021-08-26T15:40:48Z</time>
      </trkpt>
      <trkpt lat="47.71576" lon="5.08772">
        <ele>413.5</ele>
        <time>2021-08-26T15:40:59Z</time>
      </trkpt>
      <trkpt lat="47.71588" lon="5.08762">
        <ele>412.18</ele>
        <time>2021-08-26T15:41:14Z</time>
      </trkpt>
      <trkpt lat="47.71601" lon="5.08736">
        <ele>412.58</ele>
        <time>2021-08-26T15:41:42Z</time>
      </trkpt>
      <trkpt lat="47.71606" lon="5.08717">
        <ele>413.07</ele>
        <time>2021-08-26T15:41:55Z</time>
      </trkpt>
      <trkpt lat="47.71609" lon="5.0871">
        <ele>413.27</ele>
        <time>2021-08-26T15:42:08Z</time>
      </trkpt>
      <trkpt lat="47.71608" lon="5.08691">
        <ele>413.87</ele>
        <time>2021-08-26T15:42:24Z</time>
      </trkpt>
      <trkpt lat="47.71611" lon="5.08666">
        <ele>413.31</ele>
        <time>2021-08-26T15:42:40Z</time>
      </trkpt>
      <trkpt lat="47.71614" lon="5.08646">
        <ele>412.75</ele>
        <time>2021-08-26T15:42:54Z</time>
      </trkpt>
      <trkpt lat="47.71614" lon="5.08619">
        <ele>411.6</ele>
        <time>2021-08-26T15:43:11Z</time>
      </trkpt>
      <trkpt lat="47.71616" lon="5.08597">
        <ele>411.02</ele>
        <time>2021-08-26T15:43:25Z</time>
      </trkpt>
      <trkpt lat="47.71614" lon="5.08573">
        <ele>410.08</ele>
        <time>2021-08-26T15:43:41Z</time>
      </trkpt>
      <trkpt lat="47.71612" lon="5.0855">
        <ele>410.08</ele>
        <time>2021-08-26T15:43:56Z</time>
      </trkpt>
      <trkpt lat="47.71612" lon="5.08547">
        <ele>410.15</ele>
        <time>2021-08-26T15:43:57Z</time>
      </trkpt>
      <trkpt lat="47.71612" lon="5.08524">
        <ele>410.13</ele>
        <time>2021-08-26T15:44:12Z</time>
      </trkpt>
      <trkpt lat="47.71606" lon="5.08507">
        <ele>410.86</ele>
        <time>2021-08-26T15:44:27Z</time>
      </trkpt>
      <trkpt lat="47.71598" lon="5.08479">
        <ele>411.2</ele>
        <time>2021-08-26T15:44:45Z</time>
      </trkpt>
      <trkpt lat="47.7159" lon="5.08458">
        <ele>410.92</ele>
        <time>2021-08-26T15:44:59Z</time>
      </trkpt>
      <trkpt lat="47.71584" lon="5.08443">
        <ele>411.09</ele>
        <time>2021-08-26T15:45:11Z</time>
      </trkpt>
      <trkpt lat="47.71575" lon="5.08427">
        <ele>410.87</ele>
        <time>2021-08-26T15:45:27Z</time>
      </trkpt>
      <trkpt lat="47.71563" lon="5.08407">
        <ele>410.3</ele>
        <time>2021-08-26T15:45:44Z</time>
      </trkpt>
      <trkpt lat="47.71551" lon="5.08391">
        <ele>409.96</ele>
        <time>2021-08-26T15:45:59Z</time>
      </trkpt>
      <trkpt lat="47.71548" lon="5.08387">
        <ele>409.75</ele>
        <time>2021-08-26T15:46:02Z</time>
      </trkpt>
      <trkpt lat="47.71539" lon="5.08379">
        <ele>408.83</ele>
        <time>2021-08-26T15:46:15Z</time>
      </trkpt>
      <trkpt lat="47.71529" lon="5.08366">
        <ele>408.35</ele>
        <time>2021-08-26T15:46:30Z</time>
      </trkpt>
      <trkpt lat="47.71517" lon="5.0835">
        <ele>408.76</ele>
        <time>2021-08-26T15:46:44Z</time>
      </trkpt>
      <trkpt lat="47.71507" lon="5.08343">
        <ele>409.39</ele>
        <time>2021-08-26T15:47:02Z</time>
      </trkpt>
      <trkpt lat="47.7149" lon="5.08331">
        <ele>408.67</ele>
        <time>2021-08-26T15:47:19Z</time>
      </trkpt>
      <trkpt lat="47.71475" lon="5.08321">
        <ele>408.54</ele>
        <time>2021-08-26T15:47:34Z</time>
      </trkpt>
      <trkpt lat="47.71462" lon="5.08318">
        <ele>408.92</ele>
        <time>2021-08-26T15:47:47Z</time>
      </trkpt>
      <trkpt lat="47.71448" lon="5.08314">
        <ele>409.57</ele>
        <time>2021-08-26T15:48:01Z</time>
      </trkpt>
      <trkpt lat="47.71439" lon="5.08312">
        <ele>410.04</ele>
        <time>2021-08-26T15:48:13Z</time>
      </trkpt>
      <trkpt lat="47.71424" lon="5.0831">
        <ele>410.8</ele>
        <time>2021-08-26T15:48:26Z</time>
      </trkpt>
      <trkpt lat="47.71409" lon="5.08305">
        <ele>411.15</ele>
        <time>2021-08-26T15:48:41Z</time>
      </trkpt>
      <trkpt lat="47.71402" lon="5.08301">
        <ele>411.18</ele>
        <time>2021-08-26T15:48:48Z</time>
      </trkpt>
      <trkpt lat="47.71387" lon="5.08294">
        <ele>411.06</ele>
        <time>2021-08-26T15:49:03Z</time>
      </trkpt>
      <trkpt lat="47.71373" lon="5.0829">
        <ele>412.73</ele>
        <time>2021-08-26T15:49:22Z</time>
      </trkpt>
      <trkpt lat="47.71358" lon="5.08284">
        <ele>413.94</ele>
        <time>2021-08-26T15:49:35Z</time>
      </trkpt>
      <trkpt lat="47.71348" lon="5.08275">
        <ele>414.4</ele>
        <time>2021-08-26T15:49:49Z</time>
      </trkpt>
      <trkpt lat="47.71339" lon="5.08264">
        <ele>414.27</ele>
        <time>2021-08-26T15:50:00Z</time>
      </trkpt>
      <trkpt lat="47.71328" lon="5.08254">
        <ele>414.69</ele>
        <time>2021-08-26T15:50:12Z</time>
      </trkpt>
      <trkpt lat="47.71316" lon="5.0824">
        <ele>413.84</ele>
        <time>2021-08-26T15:50:27Z</time>
      </trkpt>
      <trkpt lat="47.7131" lon="5.08234">
        <ele>413.75</ele>
        <time>2021-08-26T15:50:33Z</time>
      </trkpt>
      <trkpt lat="47.71309" lon="5.08233">
        <ele>413.73</ele>
        <time>2021-08-26T15:50:34Z</time>
      </trkpt>
      <trkpt lat="47.71306" lon="5.08231">
        <ele>413.62</ele>
        <time>2021-08-26T15:50:37Z</time>
      </trkpt>
      <trkpt lat="47.71302" lon="5.08222">
        <ele>413.51</ele>
        <time>2021-08-26T15:50:49Z</time>
      </trkpt>
      <trkpt lat="47.71303" lon="5.08221">
        <ele>412.98</ele>
        <time>2021-08-26T15:51:07Z</time>
      </trkpt>
      <trkpt lat="47.71302" lon="5.08217">
        <ele>413.03</ele>
        <time>2021-08-26T15:51:13Z</time>
      </trkpt>
      <trkpt lat="47.71299" lon="5.08204">
        <ele>412.39</ele>
        <time>2021-08-26T15:51:28Z</time>
      </trkpt>
      <trkpt lat="47.71303" lon="5.08216">
        <ele>413.09</ele>
        <time>2021-08-26T15:51:39Z</time>
      </trkpt>
      <trkpt lat="47.71297" lon="5.0822">
        <ele>414.87</ele>
        <time>2021-08-26T15:51:54Z</time>
      </trkpt>
      <trkpt lat="47.71293" lon="5.08228">
        <ele>416.89</ele>
        <time>2021-08-26T15:52:12Z</time>
      </trkpt>
      <trkpt lat="47.71289" lon="5.08228">
        <ele>417.53</ele>
        <time>2021-08-26T15:52:30Z</time>
      </trkpt>
      <trkpt lat="47.7129" lon="5.08228">
        <ele>418.02</ele>
        <time>2021-08-26T15:52:56Z</time>
      </trkpt>
      <trkpt lat="47.7129" lon="5.08222">
        <ele>417.68</ele>
        <time>2021-08-26T15:53:46Z</time>
      </trkpt>
      <trkpt lat="47.71287" lon="5.08232">
        <ele>419.49</ele>
        <time>2021-08-26T15:53:59Z</time>
      </trkpt>
      <trkpt lat="47.71278" lon="5.08236">
        <ele>421.25</ele>
        <time>2021-08-26T15:54:22Z</time>
      </trkpt>
      <trkpt lat="47.71279" lon="5.08235">
        <ele>421.47</ele>
        <time>2021-08-26T15:55:03Z</time>
      </trkpt>
      <trkpt lat="47.71272" lon="5.08237">
        <ele>422.96</ele>
        <time>2021-08-26T15:55:13Z</time>
      </trkpt>
    </trkseg>
  </trk>
</gpx>